createdAt,value
2022-11-05T12:38:07.868Z,7.14
2022-11-05T12:49:23.333Z,7.17
2022-11-05T13:00:26.992Z,7.10
2022-11-05T13:11:00.275Z,7.07
2022-11-05T13:53:28.138Z,6.73
2022-11-05T14:04:12.137Z,6.66
2022-11-05T14:14:23.409Z,6.71
2022-11-05T14:24:27.731Z,6.61
2022-11-05T14:34:43.799Z,6.50
2022-11-05T14:45:04.639Z,6.41
2022-11-05T14:55:07.453Z,6.28
2022-11-05T15:05:47.957Z,6.19
2022-11-05T15:15:51.024Z,6.15
2022-11-05T15:25:59.988Z,6.09
2022-11-05T15:36:22.044Z,6.04
2022-11-05T15:46:25.802Z,5.96
2022-11-05T15:56:32.907Z,5.86
2022-11-05T16:06:36.460Z,5.83
2022-11-05T16:16:38.252Z,5.86
2022-11-05T16:27:03.222Z,5.73
2022-11-05T16:37:07.628Z,5.72
2022-11-05T16:47:09.860Z,5.60
2022-11-05T16:57:31.840Z,5.62
2022-11-05T17:07:38.491Z,5.61
2022-11-05T17:17:42.781Z,5.63
2022-11-05T17:27:59.650Z,5.62
2022-11-05T17:38:01.561Z,5.58
2022-11-05T17:48:03.466Z,5.56
2022-11-05T17:58:05.105Z,5.59
2022-11-05T18:08:08.470Z,5.59
2022-11-05T18:18:10.713Z,5.60
2022-11-05T18:28:12.783Z,5.71
2022-11-05T18:38:16.803Z,5.65
2022-11-05T18:48:18.402Z,5.69
2022-11-05T18:58:20.306Z,5.62
2022-11-05T19:08:23.480Z,5.63
2022-11-05T19:18:25.802Z,5.58
2022-11-05T19:28:28.454Z,5.61
2022-11-05T19:38:30.690Z,5.62
2022-11-05T19:48:35.502Z,5.63
2022-11-05T19:58:37.329Z,5.71
2022-11-05T20:08:59.814Z,5.72
2022-11-05T20:19:23.732Z,5.79
2022-11-05T20:29:33.648Z,5.70
2022-11-05T20:39:37.110Z,5.78
2022-11-05T20:49:38.715Z,5.77
2022-11-05T20:59:40.522Z,5.69
2022-11-05T21:09:42.147Z,5.70
2022-11-05T21:19:44.085Z,5.55
2022-11-05T21:29:45.703Z,5.56
2022-11-05T21:39:47.365Z,5.58
2022-11-05T21:49:49.563Z,5.50
2022-11-05T21:59:55.467Z,5.53
2022-11-05T22:09:57.126Z,5.47
2022-11-05T22:19:58.797Z,5.46
2022-11-05T22:30:00.446Z,5.46
2022-11-05T22:40:02.212Z,5.51
2022-11-05T22:50:04.879Z,5.40
2022-11-05T23:00:12.536Z,5.41
2022-11-05T23:10:32.945Z,5.42
2022-11-05T23:20:53.078Z,5.40
2022-11-05T23:31:13.362Z,5.40
2022-11-05T23:41:33.591Z,5.36
2022-11-05T23:51:35.264Z,5.32
